Royal, NE (68773)

9:43 PM CDT on August 17, 2019 (GMT -0500)
Brunswick | | Change Station
Active Advisory: Severe Thunderstorm Watch

Elev 1864 ft 42.36 °N, 98.05 °W | Updated 13 minutes ago

Clear
Clear
77.5 °F
Feels Like 79 °F
N
6
Wind Variable Wind from SSW
Gusts 14.0 mph

Today
High -- | Low -- °F
--% Chance of Precip.
Yesterday
High -- | Low -- °F
Precip. -- in
Pressure 29.67 in
Visibility 10.0 miles
Clouds Clear
Heat Index 79 °F
Dew Point 73 °F
Humidity 86%
Rainfall 0.00 in
Snow Depth Not available.
6:41 AM 8:30 PM
Waning Gibbous, 94% visible
METAR KONL 180235Z AUTO 20008KT 10SM VCTS CLR 26/21 A2967 RMK AO2 LTG DSNT N AND NE T02600212
Pressure 29.67 in
Visibility 10.0 miles
Clouds Clear
Heat Index 79 °F
Dew Point 73 °F
Humidity 86%
Rainfall 0.00 in
Snow Depth Not available.
6:41 AM 8:30 PM
Waning Gibbous, 94% visible
METAR KONL 180235Z AUTO 20008KT 10SM VCTS CLR 26/21 A2967 RMK AO2 LTG DSNT N AND NE T02600212

Get Your Daily Forecast Email!

Thanks for signing up!

Be on the lookout for a verification email in your inbox.

You'll start receiving severe weather alerts in your inbox..

×

10-Day Weather Forecast

Almanac

Astronomy

Aug. 17, 2019 Rise Set
Actual Time
Civil Twilight
Nautical Twilight
Astronomical Twilight
Moon
Length of Visible Light
Length of Day
Tomorrow will be .
, % of the Moon is Illuminated

Today's Extremes

State Highs State Lows

Community

WunderPhotos

Category 6

Welcome to Category 6. This is the collective home for Weather Underground's featured writeups by Dr. Jeff Masters (right), Bob Henson (left), Chris Burt, and other regular contributors.

Nearby

Air Quality

  Air Quality AQ Index Pollutant
Not available.

Snow Depth

Station Depth Elevation

Earthquake Activity

City Distance Mag. Time & Date
Minimum magnitude displayed is 2.5.

Coastal Water Temperatures

Place Temperature

Stations

Nearby Weather Stations

Station Location Temp. Windchill Dew Point Humidity Wind Precip. Elev Updated Type
                   

Watches & Warnings

Severe Thunderstorm Watch
Issued: 9:35 PM CDT Aug. 17, 2019 – National Weather Service

Severe Thunderstorm Watch 593 remains in effect until 100 am CDT

NE
. Nebraska counties included are

Antelope Boyd Cedar
Dakota Dixon Holt
Keya Paha Knox Pierce
Wayne